Terminal Aerodrome Forecast
Issued by NWS Wilmington, OH

Current Version | Previous Version | Text Only | Print | Product List | Glossary Off
Versions: 1 2 3 4 5 6 7 8 9 10 11 12 13 14 15 16 17 18 19 20 21 22 23 24 25 26 27 28

000
FTUS41 KILN 282300 RRA
TAFCVG
TAF
KCVG 282343Z 2900/3006 VRB04KT P6SM BKN070
     FM290400 20003KT P6SM BKN050
     FM290900 17008KT P6SM VCSH SCT040 BKN060
     FM291200 20010G17KT 5SM -SHRA OVC040
     FM291600 22012G21KT P6SM VCTS BKN040CB
     FM300000 26010KT P6SM OVC035=

USA.gov is the U.S. government's official web portal to all federal, state and local government web resources and services.